sensor_id;sensor_type;location;lat;lon;timestamp;temperature;humidity
60473;DHT22;46318;52.716;6.444;2023-05-07T00:00:52;14.90;99.90
60473;DHT22;46318;52.716;6.444;2023-05-07T00:03:17;15.00;99.90
60473;DHT22;46318;52.716;6.444;2023-05-07T00:05:44;14.90;99.90
60473;DHT22;46318;52.716;6.444;2023-05-07T00:08:10;14.90;99.90
60473;DHT22;46318;52.716;6.444;2023-05-07T00:10:36;14.90;99.90
60473;DHT22;46318;52.716;6.444;2023-05-07T00:13:02;14.90;99.90
60473;DHT22;46318;52.716;6.444;2023-05-07T00:15:28;14.90;99.90
60473;DHT22;46318;52.716;6.444;2023-05-07T00:17:55;14.90;99.90
60473;DHT22;46318;52.716;6.444;2023-05-07T00:20:21;14.90;99.90
60473;DHT22;46318;52.716;6.444;2023-05-07T00:22:47;14.90;99.90
60473;DHT22;46318;52.716;6.444;2023-05-07T00:25:13;14.80;99.90
60473;DHT22;46318;52.716;6.444;2023-05-07T00:27:38;14.80;99.90
60473;DHT22;46318;52.716;6.444;2023-05-07T00:30:05;14.80;99.90
60473;DHT22;46318;52.716;6.444;2023-05-07T00:32:31;14.80;99.90
60473;DHT22;46318;52.716;6.444;2023-05-07T00:34:57;14.80;99.90
60473;DHT22;46318;52.716;6.444;2023-05-07T00:37:23;14.80;99.90
60473;DHT22;46318;52.716;6.444;2023-05-07T00:39:49;14.70;99.90
60473;DHT22;46318;52.716;6.444;2023-05-07T00:42:15;14.70;99.90
60473;DHT22;46318;52.716;6.444;2023-05-07T00:44:41;14.70;99.90
60473;DHT22;46318;52.716;6.444;2023-05-07T00:47:07;14.70;99.90
60473;DHT22;46318;52.716;6.444;2023-05-07T00:49:42;14.70;99.90
60473;DHT22;46318;52.716;6.444;2023-05-07T00:52:13;14.70;99.90
60473;DHT22;46318;52.716;6.444;2023-05-07T00:54:41;14.70;99.90
60473;DHT22;46318;52.716;6.444;2023-05-07T00:57:09;14.60;99.90
60473;DHT22;46318;52.716;6.444;2023-05-07T00:59:39;14.60;99.90
60473;DHT22;46318;52.716;6.444;2023-05-07T01:02:06;14.60;99.90
60473;DHT22;46318;52.716;6.444;2023-05-07T01:04:32;14.60;99.90
60473;DHT22;46318;52.716;6.444;2023-05-07T01:06:58;14.50;99.90
60473;DHT22;46318;52.716;6.444;2023-05-07T01:09:25;14.50;99.90
60473;DHT22;46318;52.716;6.444;2023-05-07T01:11:52;14.50;99.90
60473;DHT22;46318;52.716;6.444;2023-05-07T01:14:19;14.50;99.90
60473;DHT22;46318;52.716;6.444;2023-05-07T01:16:47;14.40;99.90
60473;DHT22;46318;52.716;6.444;2023-05-07T01:19:15;14.50;99.90
60473;DHT22;46318;52.716;6.444;2023-05-07T01:21:46;14.40;99.90
60473;DHT22;46318;52.716;6.444;2023-05-07T01:24:13;14.40;99.90
60473;DHT22;46318;52.716;6.444;2023-05-07T01:26:40;14.40;99.90
60473;DHT22;46318;52.716;6.444;2023-05-07T01:29:06;14.30;99.90
60473;DHT22;46318;52.716;6.444;2023-05-07T01:31:33;14.30;99.90
60473;DHT22;46318;52.716;6.444;2023-05-07T01:34:01;14.30;99.90
60473;DHT22;46318;52.716;6.444;2023-05-07T01:36:29;14.30;99.90
60473;DHT22;46318;52.716;6.444;2023-05-07T01:38:55;14.20;99.90
60473;DHT22;46318;52.716;6.444;2023-05-07T01:41:23;14.20;99.90
60473;DHT22;46318;52.716;6.444;2023-05-07T01:43:50;14.20;99.90
60473;DHT22;46318;52.716;6.444;2023-05-07T01:46:18;14.20;99.90
60473;DHT22;46318;52.716;6.444;2023-05-07T01:48:45;14.20;99.90
60473;DHT22;46318;52.716;6.444;2023-05-07T01:51:11;14.10;99.90
60473;DHT22;46318;52.716;6.444;2023-05-07T01:53:41;14.10;99.90
60473;DHT22;46318;52.716;6.444;2023-05-07T01:56:08;14.10;99.90
60473;DHT22;46318;52.716;6.444;2023-05-07T01:58:34;14.00;99.90
60473;DHT22;46318;52.716;6.444;2023-05-07T02:01:00;14.00;99.90
60473;DHT22;46318;52.716;6.444;2023-05-07T02:03:26;13.90;99.90
60473;DHT22;46318;52.716;6.444;2023-05-07T02:05:51;13.90;99.90
60473;DHT22;46318;52.716;6.444;2023-05-07T02:08:17;13.80;99.90
60473;DHT22;46318;52.716;6.444;2023-05-07T02:10:43;13.80;99.90
60473;DHT22;46318;52.716;6.444;2023-05-07T02:13:09;13.80;99.90
60473;DHT22;46318;52.716;6.444;2023-05-07T02:15:35;13.70;99.90
60473;DHT22;46318;52.716;6.444;2023-05-07T02:18:05;13.70;99.90
60473;DHT22;46318;52.716;6.444;2023-05-07T02:20:33;13.70;99.90
60473;DHT22;46318;52.716;6.444;2023-05-07T02:22:59;13.60;99.90
60473;DHT22;46318;52.716;6.444;2023-05-07T02:25:25;13.60;99.90
60473;DHT22;46318;52.716;6.444;2023-05-07T02:27:52;13.50;99.90
60473;DHT22;46318;52.716;6.444;2023-05-07T02:30:17;13.50;99.90
60473;DHT22;46318;52.716;6.444;2023-05-07T02:32:43;13.50;99.90
60473;DHT22;46318;52.716;6.444;2023-05-07T02:35:10;13.40;99.90
60473;DHT22;46318;52.716;6.444;2023-05-07T02:37:35;13.40;99.90
60473;DHT22;46318;52.716;6.444;2023-05-07T02:40:01;13.40;99.90
60473;DHT22;46318;52.716;6.444;2023-05-07T02:42:29;13.40;99.90
60473;DHT22;46318;52.716;6.444;2023-05-07T02:44:55;13.30;99.90
60473;DHT22;46318;52.716;6.444;2023-05-07T02:47:20;13.30;99.90
60473;DHT22;46318;52.716;6.444;2023-05-07T02:49:46;13.30;99.90
60473;DHT22;46318;52.716;6.444;2023-05-07T02:52:12;13.30;99.90
60473;DHT22;46318;52.716;6.444;2023-05-07T02:54:38;13.20;99.90
60473;DHT22;46318;52.716;6.444;2023-05-07T02:57:04;13.20;99.90
60473;DHT22;46318;52.716;6.444;2023-05-07T02:59:29;13.10;99.90
60473;DHT22;46318;52.716;6.444;2023-05-07T03:01:55;13.10;99.90
60473;DHT22;46318;52.716;6.444;2023-05-07T03:04:21;13.10;99.90
60473;DHT22;46318;52.716;6.444;2023-05-07T03:06:47;13.10;99.90
60473;DHT22;46318;52.716;6.444;2023-05-07T03:09:13;13.10;99.90
60473;DHT22;46318;52.716;6.444;2023-05-07T03:11:39;13.00;99.90
60473;DHT22;46318;52.716;6.444;2023-05-07T03:14:04;13.00;99.90
60473;DHT22;46318;52.716;6.444;2023-05-07T03:16:30;12.90;99.90
60473;DHT22;46318;52.716;6.444;2023-05-07T03:18:56;12.90;99.90
60473;DHT22;46318;52.716;6.444;2023-05-07T03:21:22;12.90;99.90
60473;DHT22;46318;52.716;6.444;2023-05-07T03:23:48;12.80;99.90
60473;DHT22;46318;52.716;6.444;2023-05-07T03:26:14;12.80;99.90
60473;DHT22;46318;52.716;6.444;2023-05-07T03:28:39;12.80;99.90
60473;DHT22;46318;52.716;6.444;2023-05-07T03:31:05;12.80;99.90
60473;DHT22;46318;52.716;6.444;2023-05-07T03:33:34;12.80;99.90
60473;DHT22;46318;52.716;6.444;2023-05-07T03:36:00;12.70;99.90
60473;DHT22;46318;52.716;6.444;2023-05-07T03:38:26;12.70;99.90
60473;DHT22;46318;52.716;6.444;2023-05-07T03:40:52;12.70;99.90
60473;DHT22;46318;52.716;6.444;2023-05-07T03:43:18;12.70;99.90
60473;DHT22;46318;52.716;6.444;2023-05-07T03:45:44;12.70;99.90
60473;DHT22;46318;52.716;6.444;2023-05-07T03:48:10;12.70;99.90
60473;DHT22;46318;52.716;6.444;2023-05-07T03:50:35;12.60;99.90
60473;DHT22;46318;52.716;6.444;2023-05-07T03:53:01;12.60;99.90
60473;DHT22;46318;52.716;6.444;2023-05-07T03:55:27;12.60;99.90
60473;DHT22;46318;52.716;6.444;2023-05-07T03:57:54;12.60;99.90
60473;DHT22;46318;52.716;6.444;2023-05-07T04:00:22;12.60;99.90
60473;DHT22;46318;52.716;6.444;2023-05-07T04:02:48;12.60;99.90
60473;DHT22;46318;52.716;6.444;2023-05-07T04:05:14;12.60;99.90
60473;DHT22;46318;52.716;6.444;2023-05-07T04:07:40;12.60;99.90
60473;DHT22;46318;52.716;6.444;2023-05-07T04:10:06;12.50;99.90
60473;DHT22;46318;52.716;6.444;2023-05-07T04:12:33;12.50;99.90
60473;DHT22;46318;52.716;6.444;2023-05-07T04:14:59;12.50;99.90
60473;DHT22;46318;52.716;6.444;2023-05-07T04:17:25;12.50;99.90
60473;DHT22;46318;52.716;6.444;2023-05-07T04:19:51;12.40;99.90
60473;DHT22;46318;52.716;6.444;2023-05-07T04:22:17;12.40;99.90
60473;DHT22;46318;52.716;6.444;2023-05-07T04:24:42;12.40;99.90
60473;DHT22;46318;52.716;6.444;2023-05-07T04:27:08;12.40;99.90
60473;DHT22;46318;52.716;6.444;2023-05-07T04:29:34;12.40;99.90
60473;DHT22;46318;52.716;6.444;2023-05-07T04:32:00;12.40;99.90
60473;DHT22;46318;52.716;6.444;2023-05-07T04:34:26;12.40;99.90
60473;DHT22;46318;52.716;6.444;2023-05-07T04:36:52;12.40;99.90
60473;DHT22;46318;52.716;6.444;2023-05-07T04:39:18;12.30;99.90
60473;DHT22;46318;52.716;6.444;2023-05-07T04:41:44;12.30;99.90
60473;DHT22;46318;52.716;6.444;2023-05-07T04:44:10;12.30;99.90
60473;DHT22;46318;52.716;6.444;2023-05-07T04:46:36;12.30;99.90
60473;DHT22;46318;52.716;6.444;2023-05-07T04:49:02;12.30;99.90
60473;DHT22;46318;52.716;6.444;2023-05-07T04:51:28;12.20;99.90
60473;DHT22;46318;52.716;6.444;2023-05-07T04:53:54;12.20;99.90
60473;DHT22;46318;52.716;6.444;2023-05-07T04:56:20;12.20;99.90
60473;DHT22;46318;52.716;6.444;2023-05-07T04:58:46;12.20;99.90
60473;DHT22;46318;52.716;6.444;2023-05-07T05:01:12;12.20;99.90
60473;DHT22;46318;52.716;6.444;2023-05-07T05:03:37;12.20;99.90
60473;DHT22;46318;52.716;6.444;2023-05-07T05:06:05;12.30;99.90
60473;DHT22;46318;52.716;6.444;2023-05-07T05:08:31;12.20;99.90
60473;DHT22;46318;52.716;6.444;2023-05-07T05:10:57;12.20;99.90
60473;DHT22;46318;52.716;6.444;2023-05-07T05:13:22;12.20;99.90
60473;DHT22;46318;52.716;6.444;2023-05-07T05:15:48;12.20;99.90
60473;DHT22;46318;52.716;6.444;2023-05-07T05:18:15;12.20;99.90
60473;DHT22;46318;52.716;6.444;2023-05-07T05:20:40;12.10;99.90
60473;DHT22;46318;52.716;6.444;2023-05-07T05:23:07;12.20;99.90
60473;DHT22;46318;52.716;6.444;2023-05-07T05:25:33;12.20;99.90
60473;DHT22;46318;52.716;6.444;2023-05-07T05:27:59;12.10;99.90
60473;DHT22;46318;52.716;6.444;2023-05-07T05:30:25;12.20;99.90
60473;DHT22;46318;52.716;6.444;2023-05-07T05:32:51;12.20;99.90
60473;DHT22;46318;52.716;6.444;2023-05-07T05:35:17;12.20;99.90
60473;DHT22;46318;52.716;6.444;2023-05-07T05:37:42;12.20;99.90
60473;DHT22;46318;52.716;6.444;2023-05-07T05:40:08;12.20;99.90
60473;DHT22;46318;52.716;6.444;2023-05-07T05:42:34;12.20;99.90
60473;DHT22;46318;52.716;6.444;2023-05-07T05:45:00;12.20;99.90
60473;DHT22;46318;52.716;6.444;2023-05-07T05:47:26;12.20;99.90
60473;DHT22;46318;52.716;6.444;2023-05-07T05:49:52;12.20;99.90
60473;DHT22;46318;52.716;6.444;2023-05-07T05:52:18;12.20;99.90
60473;DHT22;46318;52.716;6.444;2023-05-07T05:54:43;12.20;99.90
60473;DHT22;46318;52.716;6.444;2023-05-07T05:57:09;12.20;99.90
60473;DHT22;46318;52.716;6.444;2023-05-07T05:59:35;12.20;99.90
60473;DHT22;46318;52.716;6.444;2023-05-07T06:02:01;12.20;99.90
60473;DHT22;46318;52.716;6.444;2023-05-07T06:04:27;12.20;99.90
60473;DHT22;46318;52.716;6.444;2023-05-07T06:06:53;12.20;99.90
60473;DHT22;46318;52.716;6.444;2023-05-07T06:09:19;12.20;99.90
60473;DHT22;46318;52.716;6.444;2023-05-07T06:11:45;12.20;99.90
60473;DHT22;46318;52.716;6.444;2023-05-07T06:14:11;12.30;99.90
60473;DHT22;46318;52.716;6.444;2023-05-07T06:16:38;12.30;99.90
60473;DHT22;46318;52.716;6.444;2023-05-07T06:19:04;12.30;99.90
60473;DHT22;46318;52.716;6.444;2023-05-07T06:21:30;12.30;99.90
60473;DHT22;46318;52.716;6.444;2023-05-07T06:23:56;12.30;99.90
60473;DHT22;46318;52.716;6.444;2023-05-07T06:26:22;12.30;99.90
60473;DHT22;46318;52.716;6.444;2023-05-07T06:28:48;12.30;99.90
60473;DHT22;46318;52.716;6.444;2023-05-07T06:31:18;12.30;99.90
60473;DHT22;46318;52.716;6.444;2023-05-07T06:33:48;12.30;99.90
60473;DHT22;46318;52.716;6.444;2023-05-07T06:36:15;12.40;99.90
60473;DHT22;46318;52.716;6.444;2023-05-07T06:38:41;12.40;99.90
60473;DHT22;46318;52.716;6.444;2023-05-07T06:41:07;12.40;99.90
60473;DHT22;46318;52.716;6.444;2023-05-07T06:43:33;12.40;99.90
60473;DHT22;46318;52.716;6.444;2023-05-07T06:45:59;12.40;99.90
60473;DHT22;46318;52.716;6.444;2023-05-07T06:48:25;12.40;99.90
60473;DHT22;46318;52.716;6.444;2023-05-07T06:50:50;12.40;99.90
60473;DHT22;46318;52.716;6.444;2023-05-07T06:53:16;12.40;99.90
60473;DHT22;46318;52.716;6.444;2023-05-07T06:55:42;12.50;99.90
60473;DHT22;46318;52.716;6.444;2023-05-07T06:58:08;12.50;99.90
60473;DHT22;46318;52.716;6.444;2023-05-07T07:00:34;12.50;99.90
60473;DHT22;46318;52.716;6.444;2023-05-07T07:03:00;12.50;99.90
60473;DHT22;46318;52.716;6.444;2023-05-07T07:05:26;12.60;99.90
60473;DHT22;46318;52.716;6.444;2023-05-07T07:07:52;12.60;99.90
60473;DHT22;46318;52.716;6.444;2023-05-07T07:10:24;12.70;99.90
60473;DHT22;46318;52.716;6.444;2023-05-07T07:12:50;12.70;99.90
60473;DHT22;46318;52.716;6.444;2023-05-07T07:15:17;12.70;99.90
60473;DHT22;46318;52.716;6.444;2023-05-07T07:17:46;12.80;99.90
60473;DHT22;46318;52.716;6.444;2023-05-07T07:20:12;12.80;99.90
60473;DHT22;46318;52.716;6.444;2023-05-07T07:22:38;12.80;99.90
60473;DHT22;46318;52.716;6.444;2023-05-07T07:25:04;12.80;99.90
60473;DHT22;46318;52.716;6.444;2023-05-07T07:27:30;12.90;99.90
60473;DHT22;46318;52.716;6.444;2023-05-07T07:29:56;12.90;99.90
60473;DHT22;46318;52.716;6.444;2023-05-07T07:32:24;13.00;99.90
60473;DHT22;46318;52.716;6.444;2023-05-07T07:34:51;13.00;99.90
60473;DHT22;46318;52.716;6.444;2023-05-07T07:37:17;13.10;99.90
60473;DHT22;46318;52.716;6.444;2023-05-07T07:39:43;13.20;99.90
60473;DHT22;46318;52.716;6.444;2023-05-07T07:42:09;13.20;99.90
60473;DHT22;46318;52.716;6.444;2023-05-07T07:44:35;13.20;99.90
60473;DHT22;46318;52.716;6.444;2023-05-07T07:47:01;13.30;99.90
60473;DHT22;46318;52.716;6.444;2023-05-07T07:49:27;13.40;99.90
60473;DHT22;46318;52.716;6.444;2023-05-07T07:51:53;13.40;99.90
60473;DHT22;46318;52.716;6.444;2023-05-07T07:54:18;13.50;99.90
60473;DHT22;46318;52.716;6.444;2023-05-07T07:56:44;13.50;99.90
60473;DHT22;46318;52.716;6.444;2023-05-07T07:59:10;13.60;99.90
60473;DHT22;46318;52.716;6.444;2023-05-07T08:01:36;13.60;99.90
60473;DHT22;46318;52.716;6.444;2023-05-07T08:04:02;13.70;99.90
60473;DHT22;46318;52.716;6.444;2023-05-07T08:06:29;13.70;99.90
60473;DHT22;46318;52.716;6.444;2023-05-07T08:08:55;13.80;99.90
60473;DHT22;46318;52.716;6.444;2023-05-07T08:11:21;13.80;99.90
60473;DHT22;46318;52.716;6.444;2023-05-07T08:13:48;13.90;99.90
60473;DHT22;46318;52.716;6.444;2023-05-07T08:16:14;13.90;99.90
60473;DHT22;46318;52.716;6.444;2023-05-07T08:18:40;14.00;99.90
60473;DHT22;46318;52.716;6.444;2023-05-07T08:21:06;14.00;99.90
60473;DHT22;46318;52.716;6.444;2023-05-07T08:23:32;14.10;99.90
60473;DHT22;46318;52.716;6.444;2023-05-07T08:26:00;14.20;99.90
60473;DHT22;46318;52.716;6.444;2023-05-07T08:28:26;14.30;99.90
60473;DHT22;46318;52.716;6.444;2023-05-07T08:30:52;14.40;99.90
60473;DHT22;46318;52.716;6.444;2023-05-07T08:33:17;14.50;99.90
60473;DHT22;46318;52.716;6.444;2023-05-07T08:35:43;14.60;99.90
60473;DHT22;46318;52.716;6.444;2023-05-07T08:38:09;14.70;99.90
60473;DHT22;46318;52.716;6.444;2023-05-07T08:40:39;14.90;99.90
60473;DHT22;46318;52.716;6.444;2023-05-07T08:43:06;15.00;99.90
60473;DHT22;46318;52.716;6.444;2023-05-07T08:45:33;15.20;99.90
60473;DHT22;46318;52.716;6.444;2023-05-07T08:48:02;15.30;99.90
60473;DHT22;46318;52.716;6.444;2023-05-07T08:50:29;15.40;99.90
60473;DHT22;46318;52.716;6.444;2023-05-07T08:52:55;15.50;99.90
60473;DHT22;46318;52.716;6.444;2023-05-07T08:55:23;15.50;99.90
60473;DHT22;46318;52.716;6.444;2023-05-07T08:57:50;15.60;99.90
60473;DHT22;46318;52.716;6.444;2023-05-07T09:00:18;15.60;99.90
60473;DHT22;46318;52.716;6.444;2023-05-07T09:02:44;15.70;99.90
60473;DHT22;46318;52.716;6.444;2023-05-07T09:05:09;15.80;99.90
60473;DHT22;46318;52.716;6.444;2023-05-07T09:07:35;16.00;99.90
60473;DHT22;46318;52.716;6.444;2023-05-07T09:10:03;16.10;99.90
60473;DHT22;46318;52.716;6.444;2023-05-07T09:12:30;16.20;99.90
60473;DHT22;46318;52.716;6.444;2023-05-07T09:14:56;16.20;99.90
60473;DHT22;46318;52.716;6.444;2023-05-07T09:17:22;16.30;99.90
60473;DHT22;46318;52.716;6.444;2023-05-07T09:19:48;16.30;99.90
60473;DHT22;46318;52.716;6.444;2023-05-07T09:22:14;16.40;99.90
60473;DHT22;46318;52.716;6.444;2023-05-07T09:24:40;16.40;99.90
60473;DHT22;46318;52.716;6.444;2023-05-07T09:27:06;16.50;99.90
60473;DHT22;46318;52.716;6.444;2023-05-07T09:29:33;16.60;99.90
60473;DHT22;46318;52.716;6.444;2023-05-07T09:32:07;16.70;99.90
60473;DHT22;46318;52.716;6.444;2023-05-07T09:34:34;16.80;99.90
60473;DHT22;46318;52.716;6.444;2023-05-07T09:37:04;16.90;99.90
60473;DHT22;46318;52.716;6.444;2023-05-07T09:39:44;17.00;99.90
60473;DHT22;46318;52.716;6.444;2023-05-07T09:42:11;17.00;99.90
60473;DHT22;46318;52.716;6.444;2023-05-07T09:44:38;17.10;99.90
60473;DHT22;46318;52.716;6.444;2023-05-07T09:47:05;17.10;99.90
60473;DHT22;46318;52.716;6.444;2023-05-07T09:49:35;17.10;99.90
60473;DHT22;46318;52.716;6.444;2023-05-07T09:52:03;17.20;99.90
60473;DHT22;46318;52.716;6.444;2023-05-07T09:54:36;17.20;99.90
60473;DHT22;46318;52.716;6.444;2023-05-07T09:57:04;17.30;99.90
60473;DHT22;46318;52.716;6.444;2023-05-07T09:59:34;17.40;99.90
60473;DHT22;46318;52.716;6.444;2023-05-07T10:02:03;17.50;99.90
60473;DHT22;46318;52.716;6.444;2023-05-07T10:04:31;17.60;99.90
60473;DHT22;46318;52.716;6.444;2023-05-07T10:06:58;17.70;99.90
60473;DHT22;46318;52.716;6.444;2023-05-07T10:09:25;17.80;99.90
60473;DHT22;46318;52.716;6.444;2023-05-07T10:11:52;17.90;99.90
60473;DHT22;46318;52.716;6.444;2023-05-07T10:14:20;18.00;99.90
60473;DHT22;46318;52.716;6.444;2023-05-07T10:16:47;18.10;99.90
60473;DHT22;46318;52.716;6.444;2023-05-07T10:19:14;18.20;99.90
60473;DHT22;46318;52.716;6.444;2023-05-07T10:21:48;18.30;99.90
60473;DHT22;46318;52.716;6.444;2023-05-07T10:24:29;18.30;99.90
60473;DHT22;46318;52.716;6.444;2023-05-07T10:26:58;18.40;99.90
60473;DHT22;46318;52.716;6.444;2023-05-07T10:34:54;18.60;99.60
60473;DHT22;46318;52.716;6.444;2023-05-07T10:37:21;18.60;99.40
60473;DHT22;46318;52.716;6.444;2023-05-07T10:39:48;18.70;99.10
60473;DHT22;46318;52.716;6.444;2023-05-07T10:42:15;18.80;98.90
60473;DHT22;46318;52.716;6.444;2023-05-07T10:44:41;18.80;98.50
60473;DHT22;46318;52.716;6.444;2023-05-07T10:47:09;18.80;98.10
60473;DHT22;46318;52.716;6.444;2023-05-07T10:52:30;18.90;97.00
60473;DHT22;46318;52.716;6.444;2023-05-07T10:57:43;19.10;97.80
60473;DHT22;46318;52.716;6.444;2023-05-07T11:05:30;19.30;96.00
60473;DHT22;46318;52.716;6.444;2023-05-07T11:07:59;19.40;97.30
60473;DHT22;46318;52.716;6.444;2023-05-07T11:10:51;19.40;96.60
60473;DHT22;46318;52.716;6.444;2023-05-07T11:13:41;19.50;96.50
60473;DHT22;46318;52.716;6.444;2023-05-07T11:16:21;19.60;95.60
60473;DHT22;46318;52.716;6.444;2023-05-07T11:18:55;19.60;96.50
60473;DHT22;46318;52.716;6.444;2023-05-07T11:21:37;19.70;95.60
60473;DHT22;46318;52.716;6.444;2023-05-07T11:24:05;19.80;94.40
60473;DHT22;46318;52.716;6.444;2023-05-07T11:26:49;19.90;95.60
60473;DHT22;46318;52.716;6.444;2023-05-07T11:29:20;20.00;94.50
60473;DHT22;46318;52.716;6.444;2023-05-07T11:31:51;20.00;94.90
60473;DHT22;46318;52.716;6.444;2023-05-07T11:34:22;20.00;94.70
60473;DHT22;46318;52.716;6.444;2023-05-07T11:36:49;20.10;94.80
60473;DHT22;46318;52.716;6.444;2023-05-07T11:41:55;20.10;93.40
60473;DHT22;46318;52.716;6.444;2023-05-07T11:44:21;20.20;94.00
60473;DHT22;46318;52.716;6.444;2023-05-07T11:46:48;20.30;93.80
60473;DHT22;46318;52.716;6.444;2023-05-07T11:49:14;20.30;93.30
60473;DHT22;46318;52.716;6.444;2023-05-07T11:51:41;20.40;93.20
60473;DHT22;46318;52.716;6.444;2023-05-07T11:54:08;20.50;92.90
60473;DHT22;46318;52.716;6.444;2023-05-07T11:56:36;20.60;92.60
60473;DHT22;46318;52.716;6.444;2023-05-07T11:59:03;20.70;92.40
60473;DHT22;46318;52.716;6.444;2023-05-07T12:01:29;20.70;92.40
60473;DHT22;46318;52.716;6.444;2023-05-07T12:03:54;20.80;92.20
60473;DHT22;46318;52.716;6.444;2023-05-07T12:06:20;20.90;91.60
60473;DHT22;46318;52.716;6.444;2023-05-07T12:08:46;20.80;91.40
60473;DHT22;46318;52.716;6.444;2023-05-07T12:11:23;20.80;91.20
60473;DHT22;46318;52.716;6.444;2023-05-07T12:13:51;20.80;90.90
60473;DHT22;46318;52.716;6.444;2023-05-07T12:16:18;20.80;91.40
60473;DHT22;46318;52.716;6.444;2023-05-07T12:18:45;20.80;91.40
60473;DHT22;46318;52.716;6.444;2023-05-07T12:21:11;20.80;91.80
60473;DHT22;46318;52.716;6.444;2023-05-07T12:23:38;20.80;91.90
60473;DHT22;46318;52.716;6.444;2023-05-07T12:26:04;20.90;91.70
60473;DHT22;46318;52.716;6.444;2023-05-07T12:28:32;20.80;91.50
60473;DHT22;46318;52.716;6.444;2023-05-07T12:31:02;20.90;91.80
60473;DHT22;46318;52.716;6.444;2023-05-07T12:33:28;20.90;92.50
60473;DHT22;46318;52.716;6.444;2023-05-07T12:35:56;21.00;92.30
60473;DHT22;46318;52.716;6.444;2023-05-07T12:38:22;21.00;92.30
60473;DHT22;46318;52.716;6.444;2023-05-07T12:40:50;21.00;92.20
60473;DHT22;46318;52.716;6.444;2023-05-07T12:43:23;21.10;92.40
60473;DHT22;46318;52.716;6.444;2023-05-07T12:45:51;21.20;92.40
60473;DHT22;46318;52.716;6.444;2023-05-07T12:48:20;21.30;92.10
60473;DHT22;46318;52.716;6.444;2023-05-07T12:50:53;21.30;92.00
60473;DHT22;46318;52.716;6.444;2023-05-07T12:53:22;21.30;91.20
60473;DHT22;46318;52.716;6.444;2023-05-07T12:55:50;21.40;91.70
60473;DHT22;46318;52.716;6.444;2023-05-07T13:00:54;21.50;91.10
60473;DHT22;46318;52.716;6.444;2023-05-07T13:03:34;21.40;90.70
60473;DHT22;46318;52.716;6.444;2023-05-07T13:06:05;21.40;90.50
60473;DHT22;46318;52.716;6.444;2023-05-07T13:08:37;21.40;91.00
60473;DHT22;46318;52.716;6.444;2023-05-07T13:11:12;21.40;90.40
60473;DHT22;46318;52.716;6.444;2023-05-07T13:13:39;21.40;90.50
60473;DHT22;46318;52.716;6.444;2023-05-07T13:16:08;21.40;90.60
60473;DHT22;46318;52.716;6.444;2023-05-07T13:18:37;21.40;90.60
60473;DHT22;46318;52.716;6.444;2023-05-07T13:21:04;21.30;90.60
60473;DHT22;46318;52.716;6.444;2023-05-07T13:23:30;21.30;90.30
60473;DHT22;46318;52.716;6.444;2023-05-07T13:25:56;21.30;90.50
60473;DHT22;46318;52.716;6.444;2023-05-07T13:28:23;21.30;91.00
60473;DHT22;46318;52.716;6.444;2023-05-07T13:30:49;21.20;90.90
60473;DHT22;46318;52.716;6.444;2023-05-07T13:33:17;21.30;91.30
60473;DHT22;46318;52.716;6.444;2023-05-07T13:35:43;21.40;91.30
60473;DHT22;46318;52.716;6.444;2023-05-07T13:38:09;21.40;90.90
60473;DHT22;46318;52.716;6.444;2023-05-07T13:40:35;21.40;90.80
60473;DHT22;46318;52.716;6.444;2023-05-07T13:43:01;21.40;90.60
60473;DHT22;46318;52.716;6.444;2023-05-07T13:45:30;21.40;90.80
60473;DHT22;46318;52.716;6.444;2023-05-07T13:47:56;21.40;90.80
60473;DHT22;46318;52.716;6.444;2023-05-07T13:50:22;21.40;90.60
60473;DHT22;46318;52.716;6.444;2023-05-07T13:52:48;21.40;90.20
60473;DHT22;46318;52.716;6.444;2023-05-07T13:55:17;21.40;90.30
60473;DHT22;46318;52.716;6.444;2023-05-07T13:57:43;21.40;90.30
60473;DHT22;46318;52.716;6.444;2023-05-07T14:00:10;21.40;90.10
60473;DHT22;46318;52.716;6.444;2023-05-07T14:02:37;21.40;90.20
60473;DHT22;46318;52.716;6.444;2023-05-07T14:05:03;21.50;90.20
60473;DHT22;46318;52.716;6.444;2023-05-07T14:07:29;21.50;90.10
60473;DHT22;46318;52.716;6.444;2023-05-07T14:09:55;21.50;90.10
60473;DHT22;46318;52.716;6.444;2023-05-07T14:12:22;21.50;90.30
60473;DHT22;46318;52.716;6.444;2023-05-07T14:14:48;21.50;90.40
60473;DHT22;46318;52.716;6.444;2023-05-07T14:17:18;21.50;89.70
60473;DHT22;46318;52.716;6.444;2023-05-07T14:19:45;21.40;89.40
60473;DHT22;46318;52.716;6.444;2023-05-07T14:22:12;21.30;89.80
60473;DHT22;46318;52.716;6.444;2023-05-07T14:24:39;21.30;90.10
60473;DHT22;46318;52.716;6.444;2023-05-07T14:27:05;21.30;90.40
60473;DHT22;46318;52.716;6.444;2023-05-07T14:29:31;21.40;90.10
60473;DHT22;46318;52.716;6.444;2023-05-07T14:31:57;21.40;89.60
60473;DHT22;46318;52.716;6.444;2023-05-07T14:34:22;21.30;89.70
60473;DHT22;46318;52.716;6.444;2023-05-07T14:36:48;21.30;89.20
60473;DHT22;46318;52.716;6.444;2023-05-07T14:39:14;21.30;89.80
60473;DHT22;46318;52.716;6.444;2023-05-07T14:41:40;21.30;89.80
60473;DHT22;46318;52.716;6.444;2023-05-07T14:44:06;21.30;89.20
60473;DHT22;46318;52.716;6.444;2023-05-07T14:46:32;21.20;89.90
60473;DHT22;46318;52.716;6.444;2023-05-07T14:48:58;21.20;89.90
60473;DHT22;46318;52.716;6.444;2023-05-07T14:51:24;21.20;89.60
60473;DHT22;46318;52.716;6.444;2023-05-07T14:53:51;21.10;89.80
60473;DHT22;46318;52.716;6.444;2023-05-07T14:56:26;21.10;90.20
60473;DHT22;46318;52.716;6.444;2023-05-07T14:58:52;21.10;90.20
60473;DHT22;46318;52.716;6.444;2023-05-07T15:01:19;21.10;90.10
60473;DHT22;46318;52.716;6.444;2023-05-07T15:03:46;21.00;90.30
60473;DHT22;46318;52.716;6.444;2023-05-07T15:06:11;21.10;90.80
60473;DHT22;46318;52.716;6.444;2023-05-07T15:08:37;21.10;91.20
60473;DHT22;46318;52.716;6.444;2023-05-07T15:11:03;21.10;91.50
60473;DHT22;46318;52.716;6.444;2023-05-07T15:13:32;21.00;91.20
60473;DHT22;46318;52.716;6.444;2023-05-07T15:15:58;21.00;91.50
60473;DHT22;46318;52.716;6.444;2023-05-07T15:18:24;20.90;91.70
60473;DHT22;46318;52.716;6.444;2023-05-07T15:20:49;20.90;92.00
60473;DHT22;46318;52.716;6.444;2023-05-07T15:23:15;21.00;92.30
60473;DHT22;46318;52.716;6.444;2023-05-07T15:25:41;20.90;92.00
60473;DHT22;46318;52.716;6.444;2023-05-07T15:28:07;20.90;91.40
60473;DHT22;46318;52.716;6.444;2023-05-07T15:30:34;20.80;91.10
60473;DHT22;46318;52.716;6.444;2023-05-07T15:33:01;20.80;91.20
60473;DHT22;46318;52.716;6.444;2023-05-07T15:35:27;20.70;91.20
60473;DHT22;46318;52.716;6.444;2023-05-07T15:37:53;20.70;91.00
60473;DHT22;46318;52.716;6.444;2023-05-07T15:40:19;20.70;91.00
60473;DHT22;46318;52.716;6.444;2023-05-07T15:42:46;20.70;91.20
60473;DHT22;46318;52.716;6.444;2023-05-07T15:45:12;20.60;91.10
60473;DHT22;46318;52.716;6.444;2023-05-07T15:47:38;20.60;91.20
60473;DHT22;46318;52.716;6.444;2023-05-07T15:50:05;20.60;91.50